sensor_id;sensor_type;location;lat;lon;timestamp;P1;durP1;ratioP1;P2;durP2;ratioP2
6282;SDS011;3174;53.486;9.568;2024-03-22T00:00:55;11.53;;;4.70;;
6282;SDS011;3174;53.486;9.568;2024-03-22T00:03:21;11.27;;;5.33;;
6282;SDS011;3174;53.486;9.568;2024-03-22T00:05:47;12.00;;;5.97;;
6282;SDS011;3174;53.486;9.568;2024-03-22T00:08:13;16.23;;;6.50;;
6282;SDS011;3174;53.486;9.568;2024-03-22T00:10:38;11.40;;;5.63;;
6282;SDS011;3174;53.486;9.568;2024-03-22T00:13:04;9.97;;;6.13;;
6282;SDS011;3174;53.486;9.568;2024-03-22T00:15:30;9.23;;;5.47;;
6282;SDS011;3174;53.486;9.568;2024-03-22T00:17:55;11.00;;;5.20;;
6282;SDS011;3174;53.486;9.568;2024-03-22T00:20:21;13.53;;;5.97;;
6282;SDS011;3174;53.486;9.568;2024-03-22T00:22:47;10.97;;;5.90;;
6282;SDS011;3174;53.486;9.568;2024-03-22T00:25:12;9.80;;;5.57;;
6282;SDS011;3174;53.486;9.568;2024-03-22T00:27:38;10.27;;;5.50;;
6282;SDS011;3174;53.486;9.568;2024-03-22T00:30:04;12.57;;;5.47;;
6282;SDS011;3174;53.486;9.568;2024-03-22T00:32:30;12.70;;;5.80;;
6282;SDS011;3174;53.486;9.568;2024-03-22T00:34:56;11.83;;;6.03;;
6282;SDS011;3174;53.486;9.568;2024-03-22T00:37:21;9.67;;;5.43;;
6282;SDS011;3174;53.486;9.568;2024-03-22T00:39:47;9.20;;;5.10;;
6282;SDS011;3174;53.486;9.568;2024-03-22T00:42:13;10.03;;;5.23;;
6282;SDS011;3174;53.486;9.568;2024-03-22T00:44:38;12.73;;;6.40;;
6282;SDS011;3174;53.486;9.568;2024-03-22T00:47:04;10.97;;;6.03;;
6282;SDS011;3174;53.486;9.568;2024-03-22T00:49:31;12.10;;;6.60;;
6282;SDS011;3174;53.486;9.568;2024-03-22T00:51:57;10.80;;;6.47;;
6282;SDS011;3174;53.486;9.568;2024-03-22T00:54:23;10.70;;;5.93;;
6282;SDS011;3174;53.486;9.568;2024-03-22T00:56:48;12.50;;;6.87;;
6282;SDS011;3174;53.486;9.568;2024-03-22T00:59:14;10.50;;;6.47;;
6282;SDS011;3174;53.486;9.568;2024-03-22T01:01:40;14.37;;;6.40;;
6282;SDS011;3174;53.486;9.568;2024-03-22T01:04:05;10.80;;;6.57;;
6282;SDS011;3174;53.486;9.568;2024-03-22T01:06:34;12.47;;;6.70;;
6282;SDS011;3174;53.486;9.568;2024-03-22T01:09:00;15.90;;;7.47;;
6282;SDS011;3174;53.486;9.568;2024-03-22T01:11:25;13.00;;;6.77;;
6282;SDS011;3174;53.486;9.568;2024-03-22T01:13:51;11.43;;;6.73;;
6282;SDS011;3174;53.486;9.568;2024-03-22T01:16:17;12.07;;;6.47;;
6282;SDS011;3174;53.486;9.568;2024-03-22T01:18:42;10.13;;;5.70;;
6282;SDS011;3174;53.486;9.568;2024-03-22T01:21:08;12.40;;;7.03;;
6282;SDS011;3174;53.486;9.568;2024-03-22T01:23:34;16.53;;;7.03;;
6282;SDS011;3174;53.486;9.568;2024-03-22T01:25:59;12.47;;;6.97;;
6282;SDS011;3174;53.486;9.568;2024-03-22T01:28:25;12.00;;;6.27;;
6282;SDS011;3174;53.486;9.568;2024-03-22T01:30:51;10.83;;;6.13;;
6282;SDS011;3174;53.486;9.568;2024-03-22T01:33:16;14.30;;;7.30;;
6282;SDS011;3174;53.486;9.568;2024-03-22T01:35:42;14.40;;;7.27;;
6282;SDS011;3174;53.486;9.568;2024-03-22T01:38:08;14.30;;;6.90;;
6282;SDS011;3174;53.486;9.568;2024-03-22T01:40:33;13.03;;;6.83;;
6282;SDS011;3174;53.486;9.568;2024-03-22T01:42:59;16.60;;;8.03;;
6282;SDS011;3174;53.486;9.568;2024-03-22T01:45:25;16.67;;;8.83;;
6282;SDS011;3174;53.486;9.568;2024-03-22T01:47:53;14.40;;;7.17;;
6282;SDS011;3174;53.486;9.568;2024-03-22T01:50:22;13.77;;;7.83;;
6282;SDS011;3174;53.486;9.568;2024-03-22T01:52:48;17.53;;;7.77;;
6282;SDS011;3174;53.486;9.568;2024-03-22T01:55:14;15.80;;;8.27;;
6282;SDS011;3174;53.486;9.568;2024-03-22T01:57:40;15.20;;;7.83;;
6282;SDS011;3174;53.486;9.568;2024-03-22T02:00:06;16.53;;;8.10;;
6282;SDS011;3174;53.486;9.568;2024-03-22T02:02:34;16.27;;;8.60;;
6282;SDS011;3174;53.486;9.568;2024-03-22T02:05:10;16.17;;;7.97;;
6282;SDS011;3174;53.486;9.568;2024-03-22T02:07:47;23.17;;;10.57;;
6282;SDS011;3174;53.486;9.568;2024-03-22T02:10:13;17.20;;;7.90;;
6282;SDS011;3174;53.486;9.568;2024-03-22T02:12:40;17.33;;;9.57;;
6282;SDS011;3174;53.486;9.568;2024-03-22T02:15:06;13.63;;;8.03;;
6282;SDS011;3174;53.486;9.568;2024-03-22T02:17:32;16.70;;;8.47;;
6282;SDS011;3174;53.486;9.568;2024-03-22T02:19:58;16.97;;;8.93;;
6282;SDS011;3174;53.486;9.568;2024-03-22T02:22:25;14.67;;;9.37;;
6282;SDS011;3174;53.486;9.568;2024-03-22T02:24:53;20.03;;;10.23;;
6282;SDS011;3174;53.486;9.568;2024-03-22T02:27:19;17.53;;;9.23;;
6282;SDS011;3174;53.486;9.568;2024-03-22T02:29:45;19.90;;;9.77;;
6282;SDS011;3174;53.486;9.568;2024-03-22T02:32:11;19.40;;;10.43;;
6282;SDS011;3174;53.486;9.568;2024-03-22T02:34:36;21.43;;;10.57;;
6282;SDS011;3174;53.486;9.568;2024-03-22T02:37:02;20.10;;;10.50;;
6282;SDS011;3174;53.486;9.568;2024-03-22T02:39:28;20.67;;;10.80;;
6282;SDS011;3174;53.486;9.568;2024-03-22T02:41:54;20.30;;;10.03;;
6282;SDS011;3174;53.486;9.568;2024-03-22T02:44:20;23.63;;;11.20;;
6282;SDS011;3174;53.486;9.568;2024-03-22T02:46:45;22.43;;;10.53;;
6282;SDS011;3174;53.486;9.568;2024-03-22T02:49:12;25.80;;;12.47;;
6282;SDS011;3174;53.486;9.568;2024-03-22T02:51:38;21.90;;;10.83;;
6282;SDS011;3174;53.486;9.568;2024-03-22T02:54:04;25.73;;;11.53;;
6282;SDS011;3174;53.486;9.568;2024-03-22T02:56:30;22.80;;;10.47;;
6282;SDS011;3174;53.486;9.568;2024-03-22T02:58:55;22.10;;;10.83;;
6282;SDS011;3174;53.486;9.568;2024-03-22T03:01:21;26.33;;;11.23;;
6282;SDS011;3174;53.486;9.568;2024-03-22T03:03:47;27.17;;;12.97;;
6282;SDS011;3174;53.486;9.568;2024-03-22T03:06:12;24.27;;;11.73;;
6282;SDS011;3174;53.486;9.568;2024-03-22T03:08:39;17.93;;;9.87;;
6282;SDS011;3174;53.486;9.568;2024-03-22T03:11:05;23.90;;;12.73;;
6282;SDS011;3174;53.486;9.568;2024-03-22T03:13:30;24.97;;;12.33;;
6282;SDS011;3174;53.486;9.568;2024-03-22T03:15:56;23.70;;;12.50;;
6282;SDS011;3174;53.486;9.568;2024-03-22T03:18:22;22.47;;;12.20;;
6282;SDS011;3174;53.486;9.568;2024-03-22T03:20:48;24.57;;;13.10;;
6282;SDS011;3174;53.486;9.568;2024-03-22T03:23:14;18.63;;;11.23;;
6282;SDS011;3174;53.486;9.568;2024-03-22T03:25:39;26.87;;;13.03;;
6282;SDS011;3174;53.486;9.568;2024-03-22T03:28:05;27.93;;;13.13;;
6282;SDS011;3174;53.486;9.568;2024-03-22T03:30:35;29.00;;;13.93;;
6282;SDS011;3174;53.486;9.568;2024-03-22T03:33:01;24.03;;;12.40;;
6282;SDS011;3174;53.486;9.568;2024-03-22T03:35:27;25.43;;;12.23;;
6282;SDS011;3174;53.486;9.568;2024-03-22T03:37:54;29.73;;;14.37;;
6282;SDS011;3174;53.486;9.568;2024-03-22T03:40:20;27.80;;;14.30;;
6282;SDS011;3174;53.486;9.568;2024-03-22T03:42:47;22.20;;;11.93;;
6282;SDS011;3174;53.486;9.568;2024-03-22T03:45:13;25.83;;;12.20;;
6282;SDS011;3174;53.486;9.568;2024-03-22T03:47:38;26.23;;;13.53;;
6282;SDS011;3174;53.486;9.568;2024-03-22T03:50:04;28.03;;;14.37;;
6282;SDS011;3174;53.486;9.568;2024-03-22T03:52:30;26.80;;;13.77;;
6282;SDS011;3174;53.486;9.568;2024-03-22T03:54:56;27.80;;;12.83;;
6282;SDS011;3174;53.486;9.568;2024-03-22T03:57:21;28.07;;;13.60;;
6282;SDS011;3174;53.486;9.568;2024-03-22T03:59:47;27.93;;;14.40;;
6282;SDS011;3174;53.486;9.568;2024-03-22T04:02:13;32.67;;;14.73;;
6282;SDS011;3174;53.486;9.568;2024-03-22T04:04:38;30.77;;;15.00;;
6282;SDS011;3174;53.486;9.568;2024-03-22T04:07:04;25.47;;;13.30;;
6282;SDS011;3174;53.486;9.568;2024-03-22T04:09:30;30.27;;;13.67;;
6282;SDS011;3174;53.486;9.568;2024-03-22T04:11:57;35.90;;;16.33;;
6282;SDS011;3174;53.486;9.568;2024-03-22T04:14:24;26.93;;;13.47;;
6282;SDS011;3174;53.486;9.568;2024-03-22T04:16:50;32.63;;;15.27;;
6282;SDS011;3174;53.486;9.568;2024-03-22T04:19:16;29.70;;;15.23;;
6282;SDS011;3174;53.486;9.568;2024-03-22T04:21:42;36.07;;;16.67;;
6282;SDS011;3174;53.486;9.568;2024-03-22T04:24:08;29.97;;;14.97;;
6282;SDS011;3174;53.486;9.568;2024-03-22T04:26:33;32.67;;;15.63;;
6282;SDS011;3174;53.486;9.568;2024-03-22T04:28:59;31.43;;;15.13;;
6282;SDS011;3174;53.486;9.568;2024-03-22T04:31:25;30.87;;;15.43;;
6282;SDS011;3174;53.486;9.568;2024-03-22T04:33:50;33.57;;;15.77;;
6282;SDS011;3174;53.486;9.568;2024-03-22T04:36:16;29.90;;;15.30;;
6282;SDS011;3174;53.486;9.568;2024-03-22T04:38:42;34.83;;;16.27;;
6282;SDS011;3174;53.486;9.568;2024-03-22T04:41:08;29.43;;;14.10;;
6282;SDS011;3174;53.486;9.568;2024-03-22T04:43:34;32.63;;;15.10;;
6282;SDS011;3174;53.486;9.568;2024-03-22T04:46:00;39.47;;;18.70;;
6282;SDS011;3174;53.486;9.568;2024-03-22T04:48:26;51.77;;;21.77;;
6282;SDS011;3174;53.486;9.568;2024-03-22T04:50:52;90.77;;;33.67;;
6282;SDS011;3174;53.486;9.568;2024-03-22T04:53:18;106.23;;;39.23;;
6282;SDS011;3174;53.486;9.568;2024-03-22T04:55:47;95.07;;;37.90;;
6282;SDS011;3174;53.486;9.568;2024-03-22T04:58:14;63.10;;;28.03;;
6282;SDS011;3174;53.486;9.568;2024-03-22T05:00:40;44.90;;;21.20;;
6282;SDS011;3174;53.486;9.568;2024-03-22T05:03:07;39.17;;;18.23;;
6282;SDS011;3174;53.486;9.568;2024-03-22T05:05:33;34.10;;;17.23;;
6282;SDS011;3174;53.486;9.568;2024-03-22T05:07:59;48.77;;;22.07;;
6282;SDS011;3174;53.486;9.568;2024-03-22T05:10:24;35.23;;;17.60;;
6282;SDS011;3174;53.486;9.568;2024-03-22T05:12:50;37.80;;;18.20;;
6282;SDS011;3174;53.486;9.568;2024-03-22T05:15:16;46.33;;;22.17;;
6282;SDS011;3174;53.486;9.568;2024-03-22T05:17:41;40.93;;;17.57;;
6282;SDS011;3174;53.486;9.568;2024-03-22T05:20:08;35.60;;;17.03;;
6282;SDS011;3174;53.486;9.568;2024-03-22T05:22:39;40.10;;;17.70;;
6282;SDS011;3174;53.486;9.568;2024-03-22T05:25:05;43.63;;;19.53;;
6282;SDS011;3174;53.486;9.568;2024-03-22T05:27:31;40.77;;;19.17;;
6282;SDS011;3174;53.486;9.568;2024-03-22T05:29:58;44.93;;;19.60;;
6282;SDS011;3174;53.486;9.568;2024-03-22T05:32:24;41.90;;;19.13;;
6282;SDS011;3174;53.486;9.568;2024-03-22T05:34:50;35.53;;;17.30;;
6282;SDS011;3174;53.486;9.568;2024-03-22T05:37:16;36.67;;;16.90;;
6282;SDS011;3174;53.486;9.568;2024-03-22T05:39:42;36.77;;;18.03;;
6282;SDS011;3174;53.486;9.568;2024-03-22T05:42:08;37.33;;;17.53;;
6282;SDS011;3174;53.486;9.568;2024-03-22T05:44:33;39.77;;;17.83;;
6282;SDS011;3174;53.486;9.568;2024-03-22T05:46:59;43.10;;;18.57;;
6282;SDS011;3174;53.486;9.568;2024-03-22T05:49:25;36.37;;;17.30;;
6282;SDS011;3174;53.486;9.568;2024-03-22T05:51:51;41.10;;;18.57;;
6282;SDS011;3174;53.486;9.568;2024-03-22T05:54:17;35.03;;;16.70;;
6282;SDS011;3174;53.486;9.568;2024-03-22T05:56:42;37.90;;;17.00;;
6282;SDS011;3174;53.486;9.568;2024-03-22T05:59:08;36.43;;;16.87;;
6282;SDS011;3174;53.486;9.568;2024-03-22T06:01:34;36.03;;;17.13;;
6282;SDS011;3174;53.486;9.568;2024-03-22T06:03:59;37.77;;;17.87;;
6282;SDS011;3174;53.486;9.568;2024-03-22T06:06:26;41.60;;;17.53;;
6282;SDS011;3174;53.486;9.568;2024-03-22T06:08:52;42.60;;;17.87;;
6282;SDS011;3174;53.486;9.568;2024-03-22T06:11:19;39.73;;;17.70;;
6282;SDS011;3174;53.486;9.568;2024-03-22T06:13:45;42.67;;;18.07;;
6282;SDS011;3174;53.486;9.568;2024-03-22T06:16:10;38.43;;;17.23;;
6282;SDS011;3174;53.486;9.568;2024-03-22T06:18:36;41.07;;;18.67;;
6282;SDS011;3174;53.486;9.568;2024-03-22T06:21:02;38.40;;;18.70;;
6282;SDS011;3174;53.486;9.568;2024-03-22T06:23:28;38.77;;;17.13;;
6282;SDS011;3174;53.486;9.568;2024-03-22T06:25:54;38.87;;;17.87;;
6282;SDS011;3174;53.486;9.568;2024-03-22T06:28:21;36.77;;;17.60;;
6282;SDS011;3174;53.486;9.568;2024-03-22T06:30:47;40.20;;;17.67;;
6282;SDS011;3174;53.486;9.568;2024-03-22T06:33:12;36.33;;;17.27;;
6282;SDS011;3174;53.486;9.568;2024-03-22T06:35:38;39.47;;;18.43;;
6282;SDS011;3174;53.486;9.568;2024-03-22T06:38:04;41.47;;;17.67;;
6282;SDS011;3174;53.486;9.568;2024-03-22T06:40:30;44.80;;;19.83;;
6282;SDS011;3174;53.486;9.568;2024-03-22T06:42:56;39.90;;;19.03;;
6282;SDS011;3174;53.486;9.568;2024-03-22T06:45:22;40.60;;;18.53;;
6282;SDS011;3174;53.486;9.568;2024-03-22T06:47:47;41.90;;;19.70;;
6282;SDS011;3174;53.486;9.568;2024-03-22T06:50:13;39.73;;;18.57;;
6282;SDS011;3174;53.486;9.568;2024-03-22T06:52:39;37.40;;;19.80;;
6282;SDS011;3174;53.486;9.568;2024-03-22T06:55:04;45.97;;;18.77;;
6282;SDS011;3174;53.486;9.568;2024-03-22T06:57:31;40.30;;;18.97;;
6282;SDS011;3174;53.486;9.568;2024-03-22T06:59:59;46.17;;;18.90;;
6282;SDS011;3174;53.486;9.568;2024-03-22T07:02:25;42.73;;;18.87;;
6282;SDS011;3174;53.486;9.568;2024-03-22T07:04:51;37.90;;;17.90;;
6282;SDS011;3174;53.486;9.568;2024-03-22T07:07:18;35.73;;;17.73;;
6282;SDS011;3174;53.486;9.568;2024-03-22T07:09:44;44.27;;;18.80;;
6282;SDS011;3174;53.486;9.568;2024-03-22T07:12:09;36.53;;;17.37;;
6282;SDS011;3174;53.486;9.568;2024-03-22T07:14:35;41.60;;;18.63;;
6282;SDS011;3174;53.486;9.568;2024-03-22T07:17:01;40.27;;;18.90;;
6282;SDS011;3174;53.486;9.568;2024-03-22T07:19:26;42.23;;;19.60;;
6282;SDS011;3174;53.486;9.568;2024-03-22T07:21:54;42.37;;;18.67;;
6282;SDS011;3174;53.486;9.568;2024-03-22T07:24:19;43.07;;;18.73;;
6282;SDS011;3174;53.486;9.568;2024-03-22T07:26:49;41.27;;;19.00;;
6282;SDS011;3174;53.486;9.568;2024-03-22T07:29:14;42.60;;;18.53;;
6282;SDS011;3174;53.486;9.568;2024-03-22T07:31:41;42.50;;;19.00;;
6282;SDS011;3174;53.486;9.568;2024-03-22T07:34:06;41.67;;;18.27;;
6282;SDS011;3174;53.486;9.568;2024-03-22T07:36:36;39.87;;;19.63;;
6282;SDS011;3174;53.486;9.568;2024-03-22T07:39:03;39.53;;;17.90;;
6282;SDS011;3174;53.486;9.568;2024-03-22T07:41:31;36.20;;;17.20;;
6282;SDS011;3174;53.486;9.568;2024-03-22T07:43:58;40.47;;;18.53;;
6282;SDS011;3174;53.486;9.568;2024-03-22T07:46:25;41.97;;;18.60;;
6282;SDS011;3174;53.486;9.568;2024-03-22T07:48:51;42.20;;;18.87;;
6282;SDS011;3174;53.486;9.568;2024-03-22T07:51:17;38.63;;;18.77;;
6282;SDS011;3174;53.486;9.568;2024-03-22T07:53:43;43.70;;;19.00;;
6282;SDS011;3174;53.486;9.568;2024-03-22T07:56:09;43.93;;;19.97;;
6282;SDS011;3174;53.486;9.568;2024-03-22T07:58:35;42.10;;;18.57;;
6282;SDS011;3174;53.486;9.568;2024-03-22T08:01:00;44.17;;;19.00;;
6282;SDS011;3174;53.486;9.568;2024-03-22T08:03:26;45.33;;;19.53;;
6282;SDS011;3174;53.486;9.568;2024-03-22T08:05:52;38.57;;;18.97;;
6282;SDS011;3174;53.486;9.568;2024-03-22T08:08:17;39.50;;;18.50;;
6282;SDS011;3174;53.486;9.568;2024-03-22T08:10:43;40.07;;;18.10;;
6282;SDS011;3174;53.486;9.568;2024-03-22T08:13:09;42.00;;;19.63;;
6282;SDS011;3174;53.486;9.568;2024-03-22T08:15:36;41.90;;;18.37;;
6282;SDS011;3174;53.486;9.568;2024-03-22T08:18:02;42.70;;;18.37;;
6282;SDS011;3174;53.486;9.568;2024-03-22T08:20:28;43.83;;;19.33;;
6282;SDS011;3174;53.486;9.568;2024-03-22T08:22:53;37.10;;;17.70;;
6282;SDS011;3174;53.486;9.568;2024-03-22T08:25:19;38.67;;;18.47;;
6282;SDS011;3174;53.486;9.568;2024-03-22T08:27:46;37.90;;;17.77;;
6282;SDS011;3174;53.486;9.568;2024-03-22T08:30:12;38.87;;;18.23;;
6282;SDS011;3174;53.486;9.568;2024-03-22T08:32:38;46.27;;;21.20;;
6282;SDS011;3174;53.486;9.568;2024-03-22T08:35:05;42.90;;;18.87;;
6282;SDS011;3174;53.486;9.568;2024-03-22T08:37:31;38.50;;;19.17;;
6282;SDS011;3174;53.486;9.568;2024-03-22T08:39:57;46.53;;;18.97;;
6282;SDS011;3174;53.486;9.568;2024-03-22T08:42:23;39.13;;;19.87;;
6282;SDS011;3174;53.486;9.568;2024-03-22T08:44:48;47.80;;;18.87;;
6282;SDS011;3174;53.486;9.568;2024-03-22T08:47:14;42.53;;;17.73;;
6282;SDS011;3174;53.486;9.568;2024-03-22T08:49:40;37.10;;;17.40;;
6282;SDS011;3174;53.486;9.568;2024-03-22T08:52:07;44.47;;;19.83;;
6282;SDS011;3174;53.486;9.568;2024-03-22T08:54:32;40.03;;;19.23;;
6282;SDS011;3174;53.486;9.568;2024-03-22T08:56:59;40.40;;;19.37;;
6282;SDS011;3174;53.486;9.568;2024-03-22T08:59:25;37.67;;;18.30;;
6282;SDS011;3174;53.486;9.568;2024-03-22T09:01:51;41.53;;;19.07;;
6282;SDS011;3174;53.486;9.568;2024-03-22T09:04:17;38.73;;;18.87;;
6282;SDS011;3174;53.486;9.568;2024-03-22T09:06:43;41.93;;;17.93;;
6282;SDS011;3174;53.486;9.568;2024-03-22T09:09:10;36.90;;;17.47;;
6282;SDS011;3174;53.486;9.568;2024-03-22T09:11:36;37.70;;;16.60;;
6282;SDS011;3174;53.486;9.568;2024-03-22T09:14:02;36.97;;;16.73;;
6282;SDS011;3174;53.486;9.568;2024-03-22T09:16:28;36.20;;;16.50;;
6282;SDS011;3174;53.486;9.568;2024-03-22T09:18:55;36.97;;;17.17;;
6282;SDS011;3174;53.486;9.568;2024-03-22T09:21:20;34.43;;;15.70;;
6282;SDS011;3174;53.486;9.568;2024-03-22T09:23:46;36.83;;;17.30;;
6282;SDS011;3174;53.486;9.568;2024-03-22T09:26:12;36.23;;;16.50;;
6282;SDS011;3174;53.486;9.568;2024-03-22T09:28:37;36.93;;;16.93;;
6282;SDS011;3174;53.486;9.568;2024-03-22T09:31:06;41.00;;;16.80;;
6282;SDS011;3174;53.486;9.568;2024-03-22T09:33:33;32.13;;;15.80;;
6282;SDS011;3174;53.486;9.568;2024-03-22T09:35:59;31.20;;;16.07;;
6282;SDS011;3174;53.486;9.568;2024-03-22T09:38:24;36.07;;;15.30;;
6282;SDS011;3174;53.486;9.568;2024-03-22T09:40:50;29.70;;;14.10;;
6282;SDS011;3174;53.486;9.568;2024-03-22T09:43:20;35.33;;;15.60;;
6282;SDS011;3174;53.486;9.568;2024-03-22T09:45:49;28.97;;;14.53;;
6282;SDS011;3174;53.486;9.568;2024-03-22T09:48:18;26.97;;;13.27;;
6282;SDS011;3174;53.486;9.568;2024-03-22T09:50:48;29.70;;;14.13;;
6282;SDS011;3174;53.486;9.568;2024-03-22T09:53:20;26.00;;;13.33;;
6282;SDS011;3174;53.486;9.568;2024-03-22T09:55:51;25.10;;;12.17;;
6282;SDS011;3174;53.486;9.568;2024-03-22T09:58:18;30.13;;;13.67;;
6282;SDS011;3174;53.486;9.568;2024-03-22T10:00:43;26.40;;;13.10;;
6282;SDS011;3174;53.486;9.568;2024-03-22T10:03:09;23.27;;;12.23;;
6282;SDS011;3174;53.486;9.568;2024-03-22T10:05:35;23.80;;;12.30;;
6282;SDS011;3174;53.486;9.568;2024-03-22T10:08:02;23.53;;;12.07;;
6282;SDS011;3174;53.486;9.568;2024-03-22T10:10:28;23.40;;;11.23;;
6282;SDS011;3174;53.486;9.568;2024-03-22T10:12:54;18.63;;;9.73;;
6282;SDS011;3174;53.486;9.568;2024-03-22T10:15:20;19.90;;;10.93;;
6282;SDS011;3174;53.486;9.568;2024-03-22T10:17:46;23.73;;;10.80;;
6282;SDS011;3174;53.486;9.568;2024-03-22T10:20:12;24.57;;;10.67;;
6282;SDS011;3174;53.486;9.568;2024-03-22T10:22:41;21.23;;;10.37;;
6282;SDS011;3174;53.486;9.568;2024-03-22T10:25:24;19.53;;;10.17;;
6282;SDS011;3174;53.486;9.568;2024-03-22T10:27:50;18.03;;;10.37;;
6282;SDS011;3174;53.486;9.568;2024-03-22T10:30:16;22.30;;;10.20;;
6282;SDS011;3174;53.486;9.568;2024-03-22T10:32:43;20.77;;;10.10;;
6282;SDS011;3174;53.486;9.568;2024-03-22T10:35:13;15.80;;;8.00;;
6282;SDS011;3174;53.486;9.568;2024-03-22T10:37:39;15.10;;;8.07;;
6282;SDS011;3174;53.486;9.568;2024-03-22T10:40:05;14.93;;;7.67;;
6282;SDS011;3174;53.486;9.568;2024-03-22T10:42:38;14.13;;;7.33;;
6282;SDS011;3174;53.486;9.568;2024-03-22T10:45:04;15.27;;;7.80;;
6282;SDS011;3174;53.486;9.568;2024-03-22T10:47:32;14.27;;;6.93;;
6282;SDS011;3174;53.486;9.568;2024-03-22T10:50:05;15.77;;;7.13;;
6282;SDS011;3174;53.486;9.568;2024-03-22T10:52:33;14.47;;;7.33;;
6282;SDS011;3174;53.486;9.568;2024-03-22T10:55:02;14.57;;;7.10;;
6282;SDS011;3174;53.486;9.568;2024-03-22T10:57:30;12.57;;;7.00;;
6282;SDS011;3174;53.486;9.568;2024-03-22T10:59:56;12.47;;;7.07;;
6282;SDS011;3174;53.486;9.568;2024-03-22T11:02:27;11.97;;;6.87;;
6282;SDS011;3174;53.486;9.568;2024-03-22T11:04:53;12.77;;;7.23;;
6282;SDS011;3174;53.486;9.568;2024-03-22T11:07:23;11.07;;;6.63;;
6282;SDS011;3174;53.486;9.568;2024-03-22T11:09:55;11.57;;;6.77;;
6282;SDS011;3174;53.486;9.568;2024-03-22T11:12:23;14.10;;;7.27;;
6282;SDS011;3174;53.486;9.568;2024-03-22T11:14:50;14.43;;;7.57;;
6282;SDS011;3174;53.486;9.568;2024-03-22T11:17:17;13.63;;;7.40;;
6282;SDS011;3174;53.486;9.568;2024-03-22T11:19:43;13.03;;;7.50;;
6282;SDS011;3174;53.486;9.568;2024-03-22T11:22:08;15.73;;;8.00;;
6282;SDS011;3174;53.486;9.568;2024-03-22T11:24:37;16.33;;;6.63;;
6282;SDS011;3174;53.486;9.568;2024-03-22T11:27:03;12.23;;;6.83;;
6282;SDS011;3174;53.486;9.568;2024-03-22T11:29:29;13.57;;;7.07;;
6282;SDS011;3174;53.486;9.568;2024-03-22T11:31:54;12.40;;;6.80;;
6282;SDS011;3174;53.486;9.568;2024-03-22T11:34:20;11.43;;;6.80;;
6282;SDS011;3174;53.486;9.568;2024-03-22T11:36:46;15.17;;;7.47;;
6282;SDS011;3174;53.486;9.568;2024-03-22T11:39:12;14.43;;;6.83;;
6282;SDS011;3174;53.486;9.568;2024-03-22T11:41:38;14.20;;;7.30;;
6282;SDS011;3174;53.486;9.568;2024-03-22T11:44:04;14.33;;;7.03;;
6282;SDS011;3174;53.486;9.568;2024-03-22T11:46:30;10.87;;;6.43;;
6282;SDS011;3174;53.486;9.568;2024-03-22T11:48:56;14.67;;;7.20;;
6282;SDS011;3174;53.486;9.568;2024-03-22T11:51:22;14.77;;;7.57;;
6282;SDS011;3174;53.486;9.568;2024-03-22T11:53:49;11.67;;;6.73;;
6282;SDS011;3174;53.486;9.568;2024-03-22T11:56:17;12.70;;;6.57;;
6282;SDS011;3174;53.486;9.568;2024-03-22T11:58:45;14.77;;;6.23;;
6282;SDS011;3174;53.486;9.568;2024-03-22T12:01:12;10.07;;;5.57;;
6282;SDS011;3174;53.486;9.568;2024-03-22T12:03:39;11.83;;;5.37;;
6282;SDS011;3174;53.486;9.568;2024-03-22T12:06:06;10.80;;;5.93;;
6282;SDS011;3174;53.486;9.568;2024-03-22T12:08:31;10.77;;;5.70;;
6282;SDS011;3174;53.486;9.568;2024-03-22T12:10:57;7.20;;;4.87;;
6282;SDS011;3174;53.486;9.568;2024-03-22T12:13:23;7.13;;;4.83;;
6282;SDS011;3174;53.486;9.568;2024-03-22T12:15:48;8.47;;;5.03;;
6282;SDS011;3174;53.486;9.568;2024-03-22T12:18:14;7.37;;;4.67;;
6282;SDS011;3174;53.486;9.568;2024-03-22T12:20:40;9.63;;;4.73;;
6282;SDS011;3174;53.486;9.568;2024-03-22T12:23:05;8.60;;;5.00;;
6282;SDS011;3174;53.486;9.568;2024-03-22T12:25:31;8.63;;;5.53;;
6282;SDS011;3174;53.486;9.568;2024-03-22T12:27:56;7.83;;;4.63;;
6282;SDS011;3174;53.486;9.568;2024-03-22T12:30:22;8.90;;;4.70;;
6282;SDS011;3174;53.486;9.568;2024-03-22T12:32:48;8.87;;;5.07;;
6282;SDS011;3174;53.486;9.568;2024-03-22T12:35:13;7.23;;;4.53;;
6282;SDS011;3174;53.486;9.568;2024-03-22T12:37:39;7.07;;;4.60;;
6282;SDS011;3174;53.486;9.568;2024-03-22T12:40:05;9.07;;;4.70;;
6282;SDS011;3174;53.486;9.568;2024-03-22T12:42:33;7.60;;;4.70;;
6282;SDS011;3174;53.486;9.568;2024-03-22T12:44:59;11.37;;;5.63;;
6282;SDS011;3174;53.486;9.568;2024-03-22T12:47:25;5.03;;;3.87;;
6282;SDS011;3174;53.486;9.568;2024-03-22T12:49:50;6.80;;;4.00;;
6282;SDS011;3174;53.486;9.568;2024-03-22T12:52:16;5.17;;;3.27;;
6282;SDS011;3174;53.486;9.568;2024-03-22T12:54:42;4.57;;;2.90;;
6282;SDS011;3174;53.486;9.568;2024-03-22T12:57:08;3.87;;;2.50;;
6282;SDS011;3174;53.486;9.568;2024-03-22T12:59:33;3.57;;;2.30;;
6282;SDS011;3174;53.486;9.568;2024-03-22T13:01:59;2.43;;;2.00;;
6282;SDS011;3174;53.486;9.568;2024-03-22T13:04:26;2.80;;;2.10;;
6282;SDS011;3174;53.486;9.568;2024-03-22T13:06:52;2.90;;;2.00;;
6282;SDS011;3174;53.486;9.568;2024-03-22T13:09:18;4.57;;;2.10;;
6282;SDS011;3174;53.486;9.568;2024-03-22T13:11:47;3.70;;;2.10;;
6282;SDS011;3174;53.486;9.568;2024-03-22T13:14:14;2.97;;;2.00;;
6282;SDS011;3174;53.486;9.568;2024-03-22T13:16:40;5.43;;;3.07;;
6282;SDS011;3174;53.486;9.568;2024-03-22T13:19:06;4.23;;;2.47;;
6282;SDS011;3174;53.486;9.568;2024-03-22T13:21:34;5.50;;;2.90;;
6282;SDS011;3174;53.486;9.568;2024-03-22T13:23:59;4.10;;;2.60;;
6282;SDS011;3174;53.486;9.568;2024-03-22T13:26:25;4.73;;;3.33;;
6282;SDS011;3174;53.486;9.568;2024-03-22T13:28:51;4.27;;;2.50;;
6282;SDS011;3174;53.486;9.568;2024-03-22T13:31:17;2.70;;;2.20;;
6282;SDS011;3174;53.486;9.568;2024-03-22T13:33:42;2.03;;;1.70;;
6282;SDS011;3174;53.486;9.568;2024-03-22T13:36:08;3.73;;;2.50;;
6282;SDS011;3174;53.486;9.568;2024-03-22T13:38:34;2.70;;;1.90;;
6282;SDS011;3174;53.486;9.568;2024-03-22T13:40:59;2.63;;;2.20;;
6282;SDS011;3174;53.486;9.568;2024-03-22T13:43:29;4.30;;;2.30;;
6282;SDS011;3174;53.486;9.568;2024-03-22T13:45:55;3.93;;;2.50;;
6282;SDS011;3174;53.486;9.568;2024-03-22T13:48:21;2.53;;;2.23;;
6282;SDS011;3174;53.486;9.568;2024-03-22T13:50:55;2.70;;;2.10;;
6282;SDS011;3174;53.486;9.568;2024-03-22T13:53:22;2.63;;;2.20;;
6282;SDS011;3174;53.486;9.568;2024-03-22T13:55:48;3.13;;;2.13;;
6282;SDS011;3174;53.486;9.568;2024-03-22T13:58:14;3.03;;;2.10;;
6282;SDS011;3174;53.486;9.568;2024-03-22T14:00:40;3.07;;;2.10;;
6282;SDS011;3174;53.486;9.568;2024-03-22T14:03:06;2.10;;;1.67;;
6282;SDS011;3174;53.486;9.568;2024-03-22T14:05:31;2.50;;;1.50;;
6282;SDS011;3174;53.486;9.568;2024-03-22T14:07:58;2.20;;;1.77;;
6282;SDS011;3174;53.486;9.568;2024-03-22T14:10:24;3.30;;;1.50;;
6282;SDS011;3174;53.486;9.568;2024-03-22T14:12:52;4.80;;;1.70;;
6282;SDS011;3174;53.486;9.568;2024-03-22T14:15:17;3.97;;;1.73;;
6282;SDS011;3174;53.486;9.568;2024-03-22T14:17:43;4.70;;;1.53;;
6282;SDS011;3174;53.486;9.568;2024-03-22T14:20:09;3.10;;;1.83;;
6282;SDS011;3174;53.486;9.568;2024-03-22T14:22:41;4.33;;;1.53;;
6282;SDS011;3174;53.486;9.568;2024-03-22T14:25:07;1.83;;;1.20;;
6282;SDS011;3174;53.486;9.568;2024-03-22T14:27:36;6.40;;;1.53;;
6282;SDS011;3174;53.486;9.568;2024-03-22T14:30:03;7.33;;;1.90;;
6282;SDS011;3174;53.486;9.568;2024-03-22T14:32:34;9.17;;;1.83;;
6282;SDS011;3174;53.486;9.568;2024-03-22T14:35:00;4.50;;;1.60;;
6282;SDS011;3174;53.486;9.568;2024-03-22T14:37:26;7.90;;;1.87;;
6282;SDS011;3174;53.486;9.568;2024-03-22T14:39:52;6.80;;;1.90;;
6282;SDS011;3174;53.486;9.568;2024-03-22T14:42:17;6.87;;;1.90;;
6282;SDS011;3174;53.486;9.568;2024-03-22T14:44:43;4.43;;;2.00;;
6282;SDS011;3174;53.486;9.568;2024-03-22T14:47:09;6.13;;;1.70;;
6282;SDS011;3174;53.486;9.568;2024-03-22T14:49:35;9.40;;;1.80;;